createdAt,value
2022-09-13T00:01:02.156Z,3.20
2022-09-13T00:03:30.439Z,3.00
2022-09-13T00:05:57.994Z,2.97
2022-09-13T00:08:25.527Z,2.60
2022-09-13T00:10:53.830Z,2.93
2022-09-13T00:13:21.385Z,3.03
2022-09-13T00:15:48.929Z,3.40
2022-09-13T00:18:17.222Z,3.67
2022-09-13T00:20:44.786Z,4.17
2022-09-13T00:23:12.324Z,3.57
2022-09-13T00:25:40.635Z,3.73
2022-09-13T00:28:08.208Z,3.90
2022-09-13T00:30:35.744Z,4.10
2022-09-13T00:33:03.307Z,3.83
2022-09-13T00:35:30.861Z,4.10
2022-09-13T00:37:58.400Z,4.83
2022-09-13T00:40:25.985Z,4.50
2022-09-13T00:42:53.495Z,4.37
2022-09-13T00:45:21.825Z,4.60
2022-09-13T00:47:49.325Z,4.10
2022-09-13T00:50:38.077Z,4.40
2022-09-13T00:53:08.269Z,4.50
2022-09-13T00:55:35.804Z,4.10
2022-09-13T00:58:06.391Z,4.90
2022-09-13T01:00:34.694Z,4.97
2022-09-13T01:03:02.218Z,3.63
2022-09-13T01:05:29.784Z,3.67
2022-09-13T01:07:57.317Z,3.20
2022-09-13T01:10:24.852Z,3.30
2022-09-13T01:13:07.206Z,3.73
2022-09-13T01:15:34.741Z,3.37
2022-09-13T01:18:02.265Z,3.70
2022-09-13T01:20:29.831Z,3.50
2022-09-13T01:23:25.130Z,3.83
2022-09-13T01:26:10.792Z,4.00
2022-09-13T01:28:42.117Z,4.33
2022-09-13T01:31:31.209Z,5.00
2022-09-13T01:34:01.351Z,4.87
2022-09-13T01:36:53.509Z,4.60
2022-09-13T01:39:32.693Z,4.30
2022-09-13T01:42:00.207Z,4.27
2022-09-13T01:44:39.489Z,3.77
2022-09-13T01:47:16.169Z,4.93
2022-09-13T01:50:04.985Z,4.10
2022-09-13T01:52:51.150Z,4.00
2022-09-13T01:55:27.726Z,5.57
2022-09-13T01:57:58.418Z,4.33
2022-09-13T02:00:25.956Z,4.53
2022-09-13T02:02:57.065Z,4.47
2022-09-13T02:05:43.277Z,4.70
2022-09-13T02:08:10.813Z,4.50
2022-09-13T02:10:56.651Z,4.53
2022-09-13T02:13:24.955Z,5.00
2022-09-13T02:15:55.207Z,3.90
2022-09-13T02:18:22.751Z,4.30
2022-09-13T02:20:50.309Z,4.33
2022-09-13T02:23:17.840Z,4.50
2022-09-13T02:25:45.424Z,4.13
2022-09-13T02:28:12.959Z,4.70
2022-09-13T02:30:40.493Z,5.07
2022-09-13T02:33:11.229Z,5.07
2022-09-13T02:35:39.522Z,5.20
2022-09-13T02:38:15.890Z,4.80
2022-09-13T02:40:43.442Z,4.80
2022-09-13T02:43:11.727Z,4.93
2022-09-13T02:45:48.444Z,5.20
2022-09-13T02:48:18.383Z,5.07
2022-09-13T02:51:04.038Z,5.80
2022-09-13T02:53:34.603Z,5.10
2022-09-13T02:56:16.817Z,4.93
2022-09-13T02:58:51.315Z,4.30
2022-09-13T03:01:18.921Z,4.20
2022-09-13T03:03:46.403Z,5.50
2022-09-13T03:06:13.951Z,5.50
2022-09-13T03:08:41.578Z,5.23
2022-09-13T03:11:43.326Z,4.57
2022-09-13T03:14:34.795Z,4.17
2022-09-13T03:17:13.860Z,3.67
2022-09-13T03:19:43.906Z,4.40
2022-09-13T03:22:30.760Z,4.13
2022-09-13T03:25:03.741Z,4.27
2022-09-13T03:27:43.306Z,3.80
2022-09-13T03:30:13.547Z,4.10
2022-09-13T03:32:58.913Z,4.33
2022-09-13T03:35:26.459Z,4.53
2022-09-13T03:38:08.999Z,4.37
2022-09-13T03:40:51.982Z,4.67
2022-09-13T03:43:25.112Z,5.77
2022-09-13T03:45:53.448Z,5.33
2022-09-13T03:48:20.946Z,5.20
2022-09-13T03:50:49.279Z,5.10
2022-09-13T03:53:16.813Z,4.80
2022-09-13T03:55:44.358Z,4.90
2022-09-13T03:58:13.685Z,4.47
2022-09-13T04:00:41.221Z,4.70
2022-09-13T04:03:09.514Z,4.70
2022-09-13T04:05:37.125Z,5.10
2022-09-13T04:08:04.671Z,5.10
2022-09-13T04:10:32.196Z,5.93
2022-09-13T04:12:59.750Z,4.93
2022-09-13T04:15:27.285Z,5.23
2022-09-13T04:17:55.577Z,5.50
2022-09-13T04:20:23.161Z,5.03
2022-09-13T04:22:53.443Z,4.67
2022-09-13T04:25:21.746Z,5.30
2022-09-13T04:27:49.314Z,5.50
2022-09-13T04:30:16.846Z,4.90
2022-09-13T04:32:44.385Z,5.57
2022-09-13T04:35:12.737Z,6.10
2022-09-13T04:37:40.272Z,5.77
2022-09-13T04:40:08.117Z,5.57
2022-09-13T04:42:35.647Z,5.23
2022-09-13T04:45:03.970Z,6.07
2022-09-13T04:47:31.507Z,5.60
2022-09-13T04:49:59.355Z,5.37
2022-09-13T04:52:27.656Z,5.17
2022-09-13T04:54:55.196Z,5.57
2022-09-13T04:57:23.539Z,5.53
2022-09-13T04:59:51.077Z,5.27
2022-09-13T05:02:18.699Z,5.57
2022-09-13T05:04:46.195Z,5.27
2022-09-13T05:07:13.740Z,5.27
2022-09-13T05:09:41.262Z,5.47
2022-09-13T05:12:09.583Z,5.23
2022-09-13T05:14:37.118Z,5.80
2022-09-13T05:17:04.646Z,5.30
2022-09-13T05:19:32.218Z,5.17
2022-09-13T05:22:00.520Z,5.30
2022-09-13T05:24:28.062Z,5.40
2022-09-13T05:26:55.625Z,5.10
2022-09-13T05:29:23.159Z,5.67
2022-09-13T05:31:51.457Z,5.13
2022-09-13T05:34:19.031Z,5.40
2022-09-13T05:36:50.455Z,5.83
2022-09-13T05:39:43.681Z,5.60
2022-09-13T05:41:42.463Z,5.50
2022-09-13T05:44:13.353Z,5.67
2022-09-13T05:46:37.607Z,5.00
2022-09-13T05:49:05.870Z,5.10
2022-09-13T05:51:33.416Z,5.50
2022-09-13T05:54:00.941Z,5.47
2022-09-13T05:56:28.524Z,5.27
2022-09-13T05:58:56.049Z,5.43
2022-09-13T06:01:23.627Z,5.07
2022-09-13T06:03:51.956Z,5.67
2022-09-13T06:06:20.257Z,6.03
2022-09-13T06:08:47.792Z,5.47
2022-09-13T06:11:16.135Z,5.40
2022-09-13T06:13:43.663Z,6.37
2022-09-13T06:16:11.263Z,6.57
2022-09-13T06:18:38.800Z,5.60
2022-09-13T06:21:06.338Z,4.97
2022-09-13T06:23:33.873Z,4.60
2022-09-13T06:26:11.372Z,4.73
2022-09-13T06:28:39.677Z,4.93
2022-09-13T06:31:07.237Z,4.13
2022-09-13T06:33:35.545Z,4.07
2022-09-13T06:36:03.082Z,4.57
2022-09-13T06:38:30.616Z,4.07
2022-09-13T06:41:04.047Z,4.90
2022-09-13T06:43:31.590Z,4.27
2022-09-13T06:46:04.831Z,4.33
2022-09-13T06:48:32.434Z,4.10
2022-09-13T06:51:00.008Z,4.65
2022-09-13T06:53:27.530Z,4.53
2022-09-13T06:56:06.919Z,4.10
2022-09-13T06:58:34.452Z,4.00
2022-09-13T07:01:17.059Z,4.28
2022-09-13T07:03:44.523Z,3.73
2022-09-13T07:06:19.079Z,3.70
2022-09-13T07:08:42.925Z,4.07
2022-09-13T07:11:10.394Z,3.30
2022-09-13T07:13:37.995Z,3.60
2022-09-13T07:16:09.481Z,3.63
2022-09-13T07:18:36.965Z,3.40
2022-09-13T07:21:04.502Z,3.70
2022-09-13T07:23:32.075Z,3.67
2022-09-13T07:25:59.604Z,3.80
2022-09-13T07:28:27.559Z,3.73
2022-09-13T07:30:55.560Z,4.13
2022-09-13T07:33:23.019Z,3.50
2022-09-13T07:35:50.559Z,3.03
2022-09-13T07:38:18.145Z,3.40
2022-09-13T07:40:45.665Z,3.67
2022-09-13T07:43:13.200Z,3.07
2022-09-13T07:45:41.562Z,4.10
2022-09-13T07:48:09.313Z,3.53
2022-09-13T07:50:36.763Z,3.67
2022-09-13T07:53:04.327Z,3.65
2022-09-13T07:55:31.862Z,3.30
2022-09-13T07:57:59.400Z,3.62
2022-09-13T08:00:26.985Z,3.50
2022-09-13T08:02:54.558Z,3.60
2022-09-13T08:05:22.093Z,3.47
2022-09-13T08:07:49.673Z,3.50
2022-09-13T08:10:17.197Z,3.50
2022-09-13T08:12:44.730Z,3.30
2022-09-13T08:15:13.211Z,3.43
2022-09-13T08:17:41.644Z,3.80
2022-09-13T08:20:10.547Z,3.50
2022-09-13T08:22:36.800Z,3.50
2022-09-13T08:25:04.354Z,3.70
2022-09-13T08:27:31.889Z,3.33
2022-09-13T08:29:59.453Z,4.10
2022-09-13T08:32:26.983Z,3.30
2022-09-13T08:34:54.570Z,3.67
2022-09-13T08:37:22.144Z,4.07
2022-09-13T08:39:49.710Z,3.77
2022-09-13T08:42:34.916Z,10.50
2022-09-13T08:45:03.209Z,4.13
2022-09-13T08:47:36.099Z,4.20
2022-09-13T08:50:12.570Z,4.33
2022-09-13T08:53:07.364Z,3.97
2022-09-13T08:55:37.568Z,4.20
2022-09-13T08:58:23.485Z,3.93
2022-09-13T09:00:51.073Z,4.63
2022-09-13T09:03:43.040Z,3.87
2022-09-13T09:06:13.698Z,3.93
2022-09-13T09:08:47.120Z,4.10
2022-09-13T09:11:14.646Z,3.20
2022-09-13T09:13:42.253Z,3.33
2022-09-13T09:16:12.340Z,3.90
2022-09-13T09:18:40.597Z,3.50
2022-09-13T09:21:08.162Z,3.50
2022-09-13T09:23:41.299Z,3.50
2022-09-13T09:26:17.420Z,3.47
2022-09-13T09:28:44.964Z,4.22
2022-09-13T09:31:18.075Z,4.67
2022-09-13T09:34:04.118Z,3.40
2022-09-13T09:36:35.168Z,5.77
2022-09-13T09:39:03.461Z,3.73
2022-09-13T09:41:31.044Z,3.60
2022-09-13T09:44:19.426Z,3.63
2022-09-13T09:46:46.979Z,4.20
2022-09-13T09:49:38.430Z,3.83
2022-09-13T09:52:06.774Z,3.80
2022-09-13T09:54:34.311Z,3.70
2022-09-13T09:57:01.841Z,3.57
2022-09-13T09:59:29.659Z,4.03
2022-09-13T10:01:57.285Z,3.60
2022-09-13T10:04:24.734Z,3.53
2022-09-13T10:06:52.603Z,3.62
2022-09-13T10:09:20.153Z,3.10
2022-09-13T10:11:53.381Z,3.97
2022-09-13T10:14:27.262Z,3.17
2022-09-13T10:17:24.912Z,3.50
2022-09-13T10:19:52.507Z,3.67
2022-09-13T10:22:20.043Z,3.30
2022-09-13T10:24:47.578Z,3.50
2022-09-13T10:27:26.868Z,2.90
2022-09-13T10:29:54.393Z,2.47
2022-09-13T10:32:21.944Z,2.53
2022-09-13T10:34:49.548Z,2.40
2022-09-13T10:37:17.093Z,2.73
2022-09-13T10:39:53.696Z,3.00
2022-09-13T10:42:24.128Z,3.22
2022-09-13T10:44:54.656Z,2.80
2022-09-13T10:47:23.010Z,2.60
2022-09-13T10:49:53.486Z,3.10
2022-09-13T10:52:32.870Z,3.40
2022-09-13T10:55:20.931Z,3.50
2022-09-13T10:57:51.438Z,2.87
2022-09-13T11:00:36.929Z,3.00
2022-09-13T11:03:16.259Z,3.30
2022-09-13T11:06:01.723Z,3.20
2022-09-13T11:08:44.512Z,2.70
2022-09-13T11:11:14.887Z,2.80
2022-09-13T11:13:45.265Z,3.47
2022-09-13T11:16:21.163Z,3.23
2022-09-13T11:18:55.304Z,3.50
2022-09-13T11:21:44.529Z,3.17
2022-09-13T11:24:17.518Z,3.20
2022-09-13T11:26:47.495Z,3.20
2022-09-13T11:29:26.478Z,2.90
2022-09-13T11:32:15.233Z,2.83
2022-09-13T11:35:06.527Z,2.70
2022-09-13T11:37:55.169Z,3.10
2022-09-13T11:40:26.180Z,3.00
2022-09-13T11:42:59.474Z,3.03
2022-09-13T11:45:29.681Z,2.90
2022-09-13T11:48:27.962Z,2.97
2022-09-13T11:51:11.082Z,2.87
2022-09-13T11:53:47.878Z,3.20
2022-09-13T11:56:15.340Z,2.90
2022-09-13T11:58:45.575Z,2.97
2022-09-13T12:01:13.114Z,3.03
2022-09-13T12:04:01.440Z,3.17
2022-09-13T12:06:32.457Z,2.90
2022-09-13T12:09:11.996Z,3.37
2022-09-13T12:11:42.640Z,3.80
2022-09-13T12:14:12.863Z,3.90
2022-09-13T12:16:52.602Z,3.73
2022-09-13T12:19:48.179Z,3.63
2022-09-13T12:22:16.029Z,3.83
2022-09-13T12:24:49.086Z,3.17
2022-09-13T12:27:50.955Z,3.40
2022-09-13T12:30:19.278Z,3.50
2022-09-13T12:32:46.832Z,3.27
2022-09-13T12:35:20.468Z,3.62
2022-09-13T12:38:06.225Z,3.80
2022-09-13T12:40:55.362Z,3.03
2022-09-13T12:43:52.997Z,3.00
2022-09-13T12:46:32.248Z,2.80
2022-09-13T12:49:12.052Z,3.30
2022-09-13T12:52:01.125Z,2.60
2022-09-13T12:54:50.017Z,2.83
2022-09-13T12:57:40.336Z,2.73
2022-09-13T13:00:31.934Z,2.97
2022-09-13T13:03:02.174Z,3.30
2022-09-13T13:05:29.712Z,3.37
2022-09-13T13:08:03.341Z,2.97
2022-09-13T13:10:30.921Z,3.53
2022-09-13T13:12:58.456Z,4.10
2022-09-13T13:15:26.002Z,3.78
2022-09-13T13:17:53.584Z,3.37
2022-09-13T13:20:39.518Z,3.50
2022-09-13T13:23:25.809Z,3.30
2022-09-13T13:25:58.783Z,3.40
2022-09-13T13:28:44.353Z,3.50
2022-09-13T13:31:30.118Z,4.10
2022-09-13T13:34:06.975Z,3.63
2022-09-13T13:36:40.432Z,3.77
2022-09-13T13:39:25.875Z,3.37
2022-09-13T13:41:53.394Z,3.85
2022-09-13T13:44:20.919Z,4.00
2022-09-13T13:46:52.233Z,3.70
2022-09-13T13:49:32.232Z,4.30
2022-09-13T13:52:14.507Z,3.63
2022-09-13T13:55:06.421Z,4.43
2022-09-13T13:57:39.618Z,4.20
2022-09-13T14:00:13.356Z,3.90
2022-09-13T14:02:46.728Z,3.77
2022-09-13T14:05:14.302Z,4.00
2022-09-13T14:08:18.831Z,3.70
2022-09-13T14:11:04.425Z,3.70
2022-09-13T14:13:56.021Z,4.17
2022-09-13T14:16:38.314Z,3.70
2022-09-13T14:19:17.891Z,3.63
2022-09-13T14:21:45.416Z,4.03
2022-09-13T14:24:24.954Z,3.90
2022-09-13T14:26:52.550Z,4.03
2022-09-13T14:29:20.063Z,4.07
2022-09-13T14:31:47.691Z,4.33
2022-09-13T14:34:23.885Z,4.00
2022-09-13T14:36:54.492Z,4.30
2022-09-13T14:39:22.027Z,3.97
2022-09-13T14:41:50.329Z,3.63
2022-09-13T14:44:27.555Z,3.83
2022-09-13T14:46:48.650Z,4.70
2022-09-13T14:49:16.143Z,4.57
2022-09-13T14:51:46.680Z,4.00
2022-09-13T14:54:16.683Z,4.33
2022-09-13T14:56:47.122Z,4.43
2022-09-13T14:59:29.495Z,4.53
2022-09-13T15:02:02.178Z,4.07
2022-09-13T15:04:24.667Z,4.60
2022-09-13T15:07:08.090Z,4.37
2022-09-13T15:09:36.403Z,4.20
2022-09-13T15:12:03.940Z,3.80
2022-09-13T15:14:31.527Z,3.83
2022-09-13T15:17:01.784Z,3.67
2022-09-13T15:19:32.065Z,3.83
2022-09-13T15:22:05.537Z,3.63
2022-09-13T15:24:33.880Z,3.90
2022-09-13T15:27:07.399Z,3.97
2022-09-13T15:29:35.755Z,4.40
2022-09-13T15:32:03.304Z,4.20
2022-09-13T15:34:30.879Z,3.47
2022-09-13T15:37:13.882Z,3.43
2022-09-13T15:39:50.485Z,4.20
2022-09-13T15:42:17.941Z,4.18
2022-09-13T15:44:45.538Z,4.07
2022-09-13T15:47:18.750Z,3.87
2022-09-13T15:49:52.389Z,4.00
2022-09-13T15:52:20.009Z,3.73
2022-09-13T15:54:48.261Z,3.93
2022-09-13T15:57:22.079Z,4.32
2022-09-13T15:59:49.621Z,4.57
2022-09-13T16:02:22.843Z,4.30
2022-09-13T16:07:15.654Z,4.90
2022-09-13T16:09:43.965Z,5.55
2022-09-13T16:12:11.499Z,5.17
2022-09-13T16:14:41.865Z,4.60
2022-09-13T16:17:12.369Z,4.70
2022-09-13T16:19:39.903Z,4.63
2022-09-13T16:22:12.109Z,4.77
2022-09-13T16:24:35.043Z,4.70
2022-09-13T16:27:03.335Z,5.50
2022-09-13T16:29:31.009Z,5.90
2022-09-13T16:31:59.272Z,5.30
2022-09-13T16:34:26.875Z,6.10
2022-09-13T16:36:54.459Z,5.30
2022-09-13T16:39:22.338Z,5.67
2022-09-13T16:41:49.794Z,5.83
2022-09-13T16:44:18.146Z,5.40
2022-09-13T16:46:45.757Z,5.87
2022-09-13T16:49:13.242Z,5.78
2022-09-13T16:51:40.842Z,6.18
2022-09-13T16:54:09.147Z,4.80
2022-09-13T16:56:36.660Z,5.57
2022-09-13T16:59:04.383Z,5.33
2022-09-13T17:01:32.005Z,6.47
2022-09-13T17:03:59.461Z,6.30
2022-09-13T17:06:27.822Z,5.90
2022-09-13T17:08:58.312Z,5.50
2022-09-13T17:11:25.856Z,5.80
2022-09-13T17:13:53.430Z,5.67
2022-09-13T17:16:26.780Z,6.00
2022-09-13T17:18:54.298Z,5.77
2022-09-13T17:21:21.901Z,5.97
2022-09-13T17:23:49.446Z,6.20
2022-09-13T17:26:16.987Z,5.70
2022-09-13T17:28:44.577Z,5.73
2022-09-13T17:31:12.940Z,5.57
2022-09-13T17:33:40.614Z,5.87
2022-09-13T17:36:08.170Z,5.70
2022-09-13T17:38:36.451Z,5.50
2022-09-13T17:41:07.745Z,5.13
2022-09-13T17:43:36.307Z,4.43
2022-09-13T17:46:06.437Z,5.03
2022-09-13T17:48:33.914Z,5.40
2022-09-13T17:51:02.692Z,5.70
2022-09-13T17:53:30.226Z,7.00
2022-09-13T17:55:57.776Z,6.70
2022-09-13T17:58:25.355Z,5.93
2022-09-13T18:00:52.911Z,6.50
2022-09-13T18:03:20.453Z,5.83
2022-09-13T18:05:48.022Z,6.03
2022-09-13T18:08:15.542Z,6.00
2022-09-13T18:11:04.170Z,5.93
2022-09-13T18:13:11.447Z,5.80
2022-09-13T18:15:39.025Z,6.75
2022-09-13T18:18:06.506Z,5.73
2022-09-13T18:20:39.888Z,4.70
2022-09-13T18:23:02.364Z,4.97
2022-09-13T18:25:29.897Z,4.43
2022-09-13T18:27:59.133Z,4.50
2022-09-13T18:30:26.668Z,5.20
2022-09-13T18:32:54.202Z,5.20
2022-09-13T18:35:21.788Z,5.03
2022-09-13T18:37:49.311Z,4.67
2022-09-13T18:40:16.886Z,4.70
2022-09-13T18:42:45.337Z,4.80
2022-09-13T18:45:12.529Z,5.95
2022-09-13T18:47:40.838Z,5.80
2022-09-13T18:50:11.657Z,6.40
2022-09-13T18:52:37.166Z,5.73
2022-09-13T18:55:04.700Z,5.83
2022-09-13T18:57:33.075Z,5.27
2022-09-13T19:00:00.589Z,5.63
2022-09-13T19:02:28.501Z,6.60
2022-09-13T19:04:56.739Z,6.50
2022-09-13T19:07:24.265Z,6.20
2022-09-13T19:09:51.788Z,5.50
2022-09-13T19:12:20.144Z,6.27
2022-09-13T19:14:47.665Z,5.60
2022-09-13T19:17:15.200Z,5.83
2022-09-13T19:19:43.602Z,5.60
2022-09-13T19:22:11.126Z,6.40
2022-09-13T19:24:39.416Z,5.80
2022-09-13T19:27:10.410Z,5.53
2022-09-13T19:29:38.216Z,6.20
2022-09-13T19:32:06.530Z,5.20
2022-09-13T19:34:34.108Z,5.97
2022-09-13T19:37:01.649Z,6.17
2022-09-13T19:39:30.348Z,6.07
2022-09-13T19:41:56.790Z,5.10
2022-09-13T19:44:24.292Z,5.73
2022-09-13T19:47:15.024Z,5.83
2022-09-13T19:49:20.172Z,4.80
2022-09-13T19:51:51.936Z,4.67
2022-09-13T19:54:15.238Z,4.50
2022-09-13T19:56:43.608Z,3.67
2022-09-13T19:59:11.903Z,3.63
2022-09-13T20:01:39.472Z,4.10
2022-09-13T20:04:07.272Z,3.40
2022-09-13T20:06:37.475Z,4.10
2022-09-13T20:09:04.999Z,3.70
2022-09-13T20:11:33.341Z,3.30
2022-09-13T20:14:00.865Z,3.40
2022-09-13T20:16:28.392Z,3.50
2022-09-13T20:18:56.742Z,3.60
2022-09-13T20:21:24.267Z,4.57
2022-09-13T20:23:51.802Z,3.80
2022-09-13T20:26:20.321Z,3.87
2022-09-13T20:28:47.860Z,3.20
2022-09-13T20:31:15.473Z,3.43
2022-09-13T20:33:43.283Z,3.03
2022-09-13T20:36:10.999Z,3.60
2022-09-13T20:38:38.499Z,3.00
2022-09-13T20:41:08.919Z,3.07
2022-09-13T20:43:36.482Z,3.10
2022-09-13T20:46:04.052Z,3.20
2022-09-13T20:48:31.598Z,3.33
2022-09-13T20:50:59.127Z,3.00
2022-09-13T20:53:27.436Z,3.17
2022-09-13T20:55:55.041Z,2.70
2022-09-13T20:58:22.597Z,2.97
2022-09-13T21:00:50.117Z,2.90
2022-09-13T21:03:17.731Z,3.07
2022-09-13T21:05:45.215Z,3.40
2022-09-13T21:08:30.739Z,2.77
2022-09-13T21:11:01.032Z,2.40
2022-09-13T21:13:28.565Z,2.27
2022-09-13T21:15:56.897Z,2.50
2022-09-13T21:18:24.431Z,2.90
2022-09-13T21:20:58.031Z,2.67
2022-09-13T21:23:25.604Z,2.63
2022-09-13T21:25:53.139Z,2.67
2022-09-13T21:28:20.675Z,2.73
2022-09-13T21:31:01.251Z,2.60
2022-09-13T21:33:28.692Z,2.80
2022-09-13T21:35:56.998Z,2.80
2022-09-13T21:38:27.546Z,2.67
2022-09-13T21:40:55.084Z,2.30
2022-09-13T21:43:22.626Z,2.60
2022-09-13T21:45:51.021Z,2.80
2022-09-13T21:48:18.504Z,2.67
2022-09-13T21:50:46.037Z,2.85
2022-09-13T21:53:14.542Z,2.13
2022-09-13T21:55:42.081Z,2.90
2022-09-13T21:58:09.605Z,2.40
2022-09-13T22:00:38.254Z,2.23
2022-09-13T22:03:05.802Z,2.27
2022-09-13T22:05:33.332Z,3.10
2022-09-13T22:08:00.907Z,2.87
2022-09-13T22:10:28.432Z,2.90
2022-09-13T22:12:56.724Z,2.90
2022-09-13T22:15:24.283Z,2.70
2022-09-13T22:17:52.582Z,2.63
2022-09-13T22:20:20.116Z,2.53
2022-09-13T22:22:47.681Z,2.60
2022-09-13T22:25:15.206Z,2.90
2022-09-13T22:27:42.742Z,2.57
2022-09-13T22:30:10.413Z,2.30
2022-09-13T22:32:37.949Z,3.03
2022-09-13T22:35:05.552Z,2.92
2022-09-13T22:37:33.910Z,2.90
2022-09-13T22:40:01.506Z,2.70
2022-09-13T22:42:28.993Z,3.08
2022-09-13T22:44:56.580Z,3.10
2022-09-13T22:47:24.112Z,2.33
2022-09-13T22:49:51.639Z,2.70
2022-09-13T22:52:19.960Z,2.30
2022-09-13T22:54:47.485Z,2.50
2022-09-13T22:57:15.010Z,2.80
2022-09-13T22:59:42.594Z,3.00
2022-09-13T23:02:10.886Z,2.87
2022-09-13T23:04:38.421Z,3.30
2022-09-13T23:07:07.354Z,2.20
2022-09-13T23:09:34.898Z,2.30
2022-09-13T23:12:02.473Z,9.30
2022-09-13T23:14:30.784Z,4.20
2022-09-13T23:16:58.349Z,3.83
2022-09-13T23:19:25.851Z,2.83
2022-09-13T23:21:54.497Z,3.67
2022-09-13T23:24:22.718Z,3.53
2022-09-13T23:26:50.253Z,3.40
2022-09-13T23:29:18.598Z,3.30
2022-09-13T23:31:46.202Z,3.80
2022-09-13T23:34:13.665Z,2.70
2022-09-13T23:36:41.249Z,3.57
2022-09-13T23:39:08.783Z,3.23
2022-09-13T23:41:36.323Z,4.13
2022-09-13T23:44:04.705Z,3.43
2022-09-13T23:46:32.268Z,3.03
2022-09-13T23:49:00.554Z,2.70
2022-09-13T23:51:28.117Z,3.03
2022-09-13T23:53:55.642Z,3.90
2022-09-13T23:56:23.945Z,3.50
2022-09-13T23:58:51.495Z,3.20
